Swift Arrow — WAFK — position and weather

sailwx.info

Track history (hours):
 
Tides and Currents Weather Stations Pressure Air Temp Water Temp Dewpoint Dewpoint Depression Visibility Wind Speed Wind Dir Waves Ship Positions

Swift Arrow

Owner: ARROW LAUNCH SERVICE INC, Port Angeles, WA. More information available from US FCC via Universal Licensing System and Coast Guard Vessel Documentation Center.

Last reported at 2017-Jan-12 05:31 UTC. Time now 2017-Jan-16 19:16 UTC.
Position N 47°15' W 122°26'.

Type: Port tender. MMSI: 369021000.

Date/timePositionNaut miles runAvg speedWind from/ knotsBaromVisibWave heightAir tempDewpointWater temp
2017-Jan-12 05:31N 47°15' W 122°26'0 0.0
2017-Jan-10 22:33N 47°15' W 122°26'0 0.3
2017-Jan-10 21:33N 47°16' W 122°26'1 0.2
2017-Jan-10 19:24N 47°15' W 122°26'5 6.0
2017-Jan-10 18:33N 47°20' W 122°28'0 0.1
2017-Jan-10 17:30N 47°20' W 122°28'1 0.1
2017-Jan-10 03:33N 47°19' W 122°27'2 2.3
2017-Jan-10 02:33N 47°16' W 122°27'4 4.1
2017-Jan-10 01:33N 47°20' W 122°28'0 0.0
2017-Jan-09 21:33N 47°20' W 122°28'  
2017-Jan-07 09:33N 47°16' W 122°27'5 4.8
2017-Jan-07 08:33N 47°21' W 122°29'0 0.3
2017-Jan-07 07:33N 47°20' W 122°29'5 4.7
2017-Jan-07 06:33N 47°16' W 122°27'1 0.1
2017-Jan-06 20:25N 47°16' W 122°26'4 4.7
2017-Jan-06 19:33N 47°19' W 122°30'0 0.1
2017-Jan-06 18:33N 47°19' W 122°30'1 0.8
2017-Jan-06 17:33N 47°18' W 122°29'4 1.1
2017-Jan-06 14:11N 47°15' W 122°26'1 2.1
2017-Jan-06 13:34N 47°16' W 122°27'0 0.1
2017-Jan-06 12:33N 47°17' W 122°27'0 0.0
2017-Jan-06 01:33N 47°16' W 122°27'1 1.0
2017-Jan-06 00:15N 47°15' W 122°26'2 3.0
2017-Jan-05 23:33N 47°17' W 122°26'2 1.6
2017-Jan-05 22:28N 47°16' W 122°26'2 0.4
2017-Jan-05 17:32N 47°17' W 122°25'2 1.7
2017-Jan-05 16:33N 47°16' W 122°26'2 1.7
2017-Jan-05 15:30N 47°17' W 122°25'2 0.1
2017-Jan-04 22:33N 47°16' W 122°26'1 1.1
2017-Jan-04 21:30N 47°17' W 122°26'0 0.2
2017-Jan-04 20:33N 47°17' W 122°26'2 0.1
2017-Jan-04 09:16N 47°15' W 122°26'0 0.2
2017-Jan-04 08:31N 47°15' W 122°26'1 0.2
2017-Jan-04 02:29N 47°17' W 122°26'1 1.0
2017-Jan-04 01:32N 47°16' W 122°26'0 0.1
2017-Jan-03 22:33N 47°16' W 122°26'1 0.2
2017-Jan-03 18:32N 47°15' W 122°26'0 0.0
2017-Jan-03 17:04N 47°15' W 122°26'0 0.0
2017-Jan-03 16:26N 47°15' W 122°26'0 0.0
2017-Jan-03 10:26N 47°15' W 122°26'1 1.1
2017-Jan-03 09:33N 47°16' W 122°27'0 0.1
2017-Jan-03 01:23N 47°16' W 122°26'  
Track history (hours):
 
Tides and Currents Weather Stations Pressure Air Temp Water Temp Dewpoint Dewpoint Depression Visibility Wind Speed Wind Dir Waves Ship Positions

Swift Arrow

Owner: ARROW LAUNCH SERVICE INC, Port Angeles, WA. More information available from US FCC via Universal Licensing System and Coast Guard Vessel Documentation Center.

Last reported at 2017-Jan-12 05:31 UTC. Time now 2017-Jan-16 19:16 UTC.
Position N 47°15' W 122°26'.

Type: Port tender. MMSI: 369021000.

Date/timePositionNaut miles runAvg speedWind from/ knotsBaromVisibWave heightAir tempDewpointWater temp
2017-Jan-12 05:31N 47°15' W 122°26'0 0.0
2017-Jan-10 22:33N 47°15' W 122°26'0 0.3
2017-Jan-10 21:33N 47°16' W 122°26'1 0.2
2017-Jan-10 19:24N 47°15' W 122°26'5 6.0
2017-Jan-10 18:33N 47°20' W 122°28'0 0.1
2017-Jan-10 17:30N 47°20' W 122°28'1 0.1
2017-Jan-10 03:33N 47°19' W 122°27'2 2.3
2017-Jan-10 02:33N 47°16' W 122°27'4 4.1
2017-Jan-10 01:33N 47°20' W 122°28'0 0.0
2017-Jan-09 21:33N 47°20' W 122°28'  
2017-Jan-07 09:33N 47°16' W 122°27'5 4.8
2017-Jan-07 08:33N 47°21' W 122°29'0 0.3
2017-Jan-07 07:33N 47°20' W 122°29'5 4.7
2017-Jan-07 06:33N 47°16' W 122°27'1 0.1
2017-Jan-06 20:25N 47°16' W 122°26'4 4.7
2017-Jan-06 19:33N 47°19' W 122°30'0 0.1
2017-Jan-06 18:33N 47°19' W 122°30'1 0.8
2017-Jan-06 17:33N 47°18' W 122°29'4 1.1
2017-Jan-06 14:11N 47°15' W 122°26'1 2.1
2017-Jan-06 13:34N 47°16' W 122°27'0 0.1
2017-Jan-06 12:33N 47°17' W 122°27'0 0.0
2017-Jan-06 01:33N 47°16' W 122°27'1 1.0
2017-Jan-06 00:15N 47°15' W 122°26'2 3.0
2017-Jan-05 23:33N 47°17' W 122°26'2 1.6
2017-Jan-05 22:28N 47°16' W 122°26'2 0.4
2017-Jan-05 17:32N 47°17' W 122°25'2 1.7
2017-Jan-05 16:33N 47°16' W 122°26'2 1.7
2017-Jan-05 15:30N 47°17' W 122°25'2 0.1
2017-Jan-04 22:33N 47°16' W 122°26'1 1.1
2017-Jan-04 21:30N 47°17' W 122°26'0 0.2
2017-Jan-04 20:33N 47°17' W 122°26'2 0.1
2017-Jan-04 09:16N 47°15' W 122°26'0 0.2
2017-Jan-04 08:31N 47°15' W 122°26'1 0.2
2017-Jan-04 02:29N 47°17' W 122°26'1 1.0
2017-Jan-04 01:32N 47°16' W 122°26'0 0.1
2017-Jan-03 22:33N 47°16' W 122°26'1 0.2
2017-Jan-03 18:32N 47°15' W 122°26'0 0.0
2017-Jan-03 17:04N 47°15' W 122°26'0 0.0
2017-Jan-03 16:26N 47°15' W 122°26'0 0.0
2017-Jan-03 10:26N 47°15' W 122°26'1 1.1
2017-Jan-03 09:33N 47°16' W 122°27'0 0.1
2017-Jan-03 01:23N 47°16' W 122°26'  

Dump ship's entire track history